sensor_id;sensor_type;location;lat;lon;timestamp;temperature;humidity
10278;DHT22;5184;51.376;7.148;2022-11-15T00:00:48;10.90;19.60
10278;DHT22;5184;51.376;7.148;2022-11-15T00:03:18;10.90;1.00
10278;DHT22;5184;51.376;7.148;2022-11-15T00:05:43;11.00;1.00
10278;DHT22;5184;51.376;7.148;2022-11-15T00:08:09;11.00;1.00
10278;DHT22;5184;51.376;7.148;2022-11-15T00:10:36;11.00;99.90
10278;DHT22;5184;51.376;7.148;2022-11-15T00:13:07;11.10;1.00
10278;DHT22;5184;51.376;7.148;2022-11-15T00:15:36;11.10;1.00
10278;DHT22;5184;51.376;7.148;2022-11-15T00:18:03;11.10;99.90
10278;DHT22;5184;51.376;7.148;2022-11-15T00:20:29;11.20;1.00
10278;DHT22;5184;51.376;7.148;2022-11-15T00:22:56;11.20;1.00
10278;DHT22;5184;51.376;7.148;2022-11-15T00:25:23;11.20;99.90
10278;DHT22;5184;51.376;7.148;2022-11-15T00:27:49;11.30;1.00
10278;DHT22;5184;51.376;7.148;2022-11-15T00:30:17;11.30;99.90
10278;DHT22;5184;51.376;7.148;2022-11-15T00:32:43;11.30;99.90
10278;DHT22;5184;51.376;7.148;2022-11-15T00:35:10;11.40;99.90
10278;DHT22;5184;51.376;7.148;2022-11-15T00:37:36;11.40;99.90
10278;DHT22;5184;51.376;7.148;2022-11-15T00:40:03;11.40;1.00
10278;DHT22;5184;51.376;7.148;2022-11-15T00:42:31;11.50;99.90
10278;DHT22;5184;51.376;7.148;2022-11-15T00:44:57;11.50;99.90
10278;DHT22;5184;51.376;7.148;2022-11-15T00:47:25;11.60;1.00
10278;DHT22;5184;51.376;7.148;2022-11-15T00:49:51;11.60;1.00
10278;DHT22;5184;51.376;7.148;2022-11-15T00:52:18;11.60;1.00
10278;DHT22;5184;51.376;7.148;2022-11-15T00:54:45;11.60;1.00
10278;DHT22;5184;51.376;7.148;2022-11-15T00:57:11;11.60;12.40
10278;DHT22;5184;51.376;7.148;2022-11-15T00:59:38;11.60;1.00
10278;DHT22;5184;51.376;7.148;2022-11-15T01:02:04;11.60;1.00
10278;DHT22;5184;51.376;7.148;2022-11-15T01:04:32;11.70;1.00
10278;DHT22;5184;51.376;7.148;2022-11-15T01:06:59;11.70;1.00
10278;DHT22;5184;51.376;7.148;2022-11-15T01:09:26;11.70;15.10
10278;DHT22;5184;51.376;7.148;2022-11-15T01:11:54;11.70;1.00
10278;DHT22;5184;51.376;7.148;2022-11-15T01:14:21;11.80;1.00
10278;DHT22;5184;51.376;7.148;2022-11-15T01:16:48;11.80;99.90
10278;DHT22;5184;51.376;7.148;2022-11-15T01:19:15;11.80;99.90
10278;DHT22;5184;51.376;7.148;2022-11-15T01:21:42;11.90;99.90
10278;DHT22;5184;51.376;7.148;2022-11-15T01:24:10;11.80;99.90
10278;DHT22;5184;51.376;7.148;2022-11-15T01:26:35;11.90;99.90
10278;DHT22;5184;51.376;7.148;2022-11-15T01:29:02;11.80;99.90
10278;DHT22;5184;51.376;7.148;2022-11-15T01:31:29;11.80;99.90
10278;DHT22;5184;51.376;7.148;2022-11-15T01:33:56;11.80;99.90
10278;DHT22;5184;51.376;7.148;2022-11-15T01:36:23;11.80;99.90
10278;DHT22;5184;51.376;7.148;2022-11-15T01:38:53;11.80;99.90
10278;DHT22;5184;51.376;7.148;2022-11-15T01:41:22;11.80;1.00
10278;DHT22;5184;51.376;7.148;2022-11-15T01:43:49;11.70;1.00
10278;DHT22;5184;51.376;7.148;2022-11-15T01:46:23;11.80;1.00
10278;DHT22;5184;51.376;7.148;2022-11-15T01:48:49;11.80;1.00
10278;DHT22;5184;51.376;7.148;2022-11-15T01:51:15;11.80;1.00
10278;DHT22;5184;51.376;7.148;2022-11-15T01:53:42;11.80;1.00
10278;DHT22;5184;51.376;7.148;2022-11-15T01:56:09;11.80;1.00
10278;DHT22;5184;51.376;7.148;2022-11-15T01:58:35;11.80;1.00
10278;DHT22;5184;51.376;7.148;2022-11-15T02:01:01;11.80;1.00
10278;DHT22;5184;51.376;7.148;2022-11-15T02:03:34;11.90;99.90
10278;DHT22;5184;51.376;7.148;2022-11-15T02:05:58;11.90;99.90
10278;DHT22;5184;51.376;7.148;2022-11-15T02:08:24;11.90;99.90
10278;DHT22;5184;51.376;7.148;2022-11-15T02:10:51;11.90;99.90
10278;DHT22;5184;51.376;7.148;2022-11-15T02:13:18;11.90;99.90
10278;DHT22;5184;51.376;7.148;2022-11-15T02:16:13;11.90;99.90
10278;DHT22;5184;51.376;7.148;2022-11-15T02:18:37;11.90;99.90
10278;DHT22;5184;51.376;7.148;2022-11-15T02:21:16;11.90;1.00
10278;DHT22;5184;51.376;7.148;2022-11-15T02:26:51;11.90;99.90
10278;DHT22;5184;51.376;7.148;2022-11-15T02:29:34;11.90;99.90
10278;DHT22;5184;51.376;7.148;2022-11-15T02:32:00;11.90;1.00
10278;DHT22;5184;51.376;7.148;2022-11-15T02:34:28;11.80;1.00
10278;DHT22;5184;51.376;7.148;2022-11-15T02:39:46;11.80;97.00
10278;DHT22;5184;51.376;7.148;2022-11-15T02:42:15;11.80;1.00
10278;DHT22;5184;51.376;7.148;2022-11-15T02:44:47;11.80;1.00
10278;DHT22;5184;51.376;7.148;2022-11-15T02:47:15;11.90;1.00
10278;DHT22;5184;51.376;7.148;2022-11-15T02:49:46;11.90;99.90
10278;DHT22;5184;51.376;7.148;2022-11-15T02:52:17;11.90;99.90
10278;DHT22;5184;51.376;7.148;2022-11-15T02:54:52;11.90;1.00
10278;DHT22;5184;51.376;7.148;2022-11-15T02:57:12;11.90;99.90
10278;DHT22;5184;51.376;7.148;2022-11-15T03:00:01;12.00;99.90
10278;DHT22;5184;51.376;7.148;2022-11-15T03:02:38;12.00;99.90
10278;DHT22;5184;51.376;7.148;2022-11-15T03:08:02;12.00;99.90
10278;DHT22;5184;51.376;7.148;2022-11-15T03:10:53;12.00;99.90
10278;DHT22;5184;51.376;7.148;2022-11-15T03:13:18;12.00;1.00
10278;DHT22;5184;51.376;7.148;2022-11-15T03:15:45;12.00;99.90
10278;DHT22;5184;51.376;7.148;2022-11-15T03:18:28;12.00;1.00
10278;DHT22;5184;51.376;7.148;2022-11-15T03:20:52;12.00;1.00
10278;DHT22;5184;51.376;7.148;2022-11-15T03:23:19;12.00;1.00
10278;DHT22;5184;51.376;7.148;2022-11-15T03:25:46;12.00;1.00
10278;DHT22;5184;51.376;7.148;2022-11-15T03:28:13;12.10;1.00
10278;DHT22;5184;51.376;7.148;2022-11-15T03:30:39;12.10;1.00
10278;DHT22;5184;51.376;7.148;2022-11-15T03:33:06;12.00;99.90
10278;DHT22;5184;51.376;7.148;2022-11-15T03:35:36;12.00;69.90
10278;DHT22;5184;51.376;7.148;2022-11-15T03:38:19;12.00;70.50
10278;DHT22;5184;51.376;7.148;2022-11-15T03:40:47;12.10;11.70
10278;DHT22;5184;51.376;7.148;2022-11-15T03:43:32;12.50;99.90
10278;DHT22;5184;51.376;7.148;2022-11-15T03:45:58;12.00;1.00
10278;DHT22;5184;51.376;7.148;2022-11-15T03:48:24;12.00;1.00
10278;DHT22;5184;51.376;7.148;2022-11-15T03:50:51;12.00;99.90
10278;DHT22;5184;51.376;7.148;2022-11-15T03:53:18;12.00;28.90
10278;DHT22;5184;51.376;7.148;2022-11-15T03:55:45;12.00;31.90
10278;DHT22;5184;51.376;7.148;2022-11-15T03:58:11;11.90;99.90
10278;DHT22;5184;51.376;7.148;2022-11-15T04:00:38;11.70;99.90
10278;DHT22;5184;51.376;7.148;2022-11-15T04:03:04;12.00;99.90
10278;DHT22;5184;51.376;7.148;2022-11-15T04:05:31;12.00;99.90
10278;DHT22;5184;51.376;7.148;2022-11-15T04:07:58;12.00;24.30
10278;DHT22;5184;51.376;7.148;2022-11-15T04:10:26;12.00;1.00
10278;DHT22;5184;51.376;7.148;2022-11-15T04:12:52;12.00;1.00
10278;DHT22;5184;51.376;7.148;2022-11-15T04:15:21;12.00;1.00
10278;DHT22;5184;51.376;7.148;2022-11-15T04:17:49;12.00;1.00
10278;DHT22;5184;51.376;7.148;2022-11-15T04:20:18;12.00;1.00
10278;DHT22;5184;51.376;7.148;2022-11-15T04:22:51;12.00;26.80
10278;DHT22;5184;51.376;7.148;2022-11-15T04:25:21;12.00;1.00
10278;DHT22;5184;51.376;7.148;2022-11-15T04:27:48;12.00;99.90
10278;DHT22;5184;51.376;7.148;2022-11-15T04:30:16;12.00;99.90
10278;DHT22;5184;51.376;7.148;2022-11-15T04:32:42;12.00;99.90
10278;DHT22;5184;51.376;7.148;2022-11-15T04:35:09;12.10;99.90
10278;DHT22;5184;51.376;7.148;2022-11-15T04:37:35;12.10;12.40
10278;DHT22;5184;51.376;7.148;2022-11-15T04:40:03;12.10;1.00
10278;DHT22;5184;51.376;7.148;2022-11-15T04:42:30;12.10;1.00
10278;DHT22;5184;51.376;7.148;2022-11-15T04:44:57;12.10;1.00
10278;DHT22;5184;51.376;7.148;2022-11-15T04:47:24;12.10;1.00
10278;DHT22;5184;51.376;7.148;2022-11-15T04:49:52;12.10;23.00
10278;DHT22;5184;51.376;7.148;2022-11-15T04:52:19;12.10;19.20
10278;DHT22;5184;51.376;7.148;2022-11-15T04:54:45;12.10;99.90
10278;DHT22;5184;51.376;7.148;2022-11-15T04:57:13;12.10;99.90
10278;DHT22;5184;51.376;7.148;2022-11-15T04:59:40;12.10;99.90
10278;DHT22;5184;51.376;7.148;2022-11-15T05:02:07;12.10;1.00
10278;DHT22;5184;51.376;7.148;2022-11-15T05:04:35;12.10;1.00
10278;DHT22;5184;51.376;7.148;2022-11-15T05:07:02;12.00;99.90
10278;DHT22;5184;51.376;7.148;2022-11-15T05:09:31;12.00;99.90
10278;DHT22;5184;51.376;7.148;2022-11-15T05:11:58;12.00;1.00
10278;DHT22;5184;51.376;7.148;2022-11-15T05:14:24;11.90;99.90
10278;DHT22;5184;51.376;7.148;2022-11-15T05:16:52;12.00;99.90
10278;DHT22;5184;51.376;7.148;2022-11-15T05:19:19;12.00;99.90
10278;DHT22;5184;51.376;7.148;2022-11-15T05:21:46;12.00;99.90
10278;DHT22;5184;51.376;7.148;2022-11-15T05:24:14;12.00;97.20
10278;DHT22;5184;51.376;7.148;2022-11-15T05:26:40;12.00;99.50
10278;DHT22;5184;51.376;7.148;2022-11-15T05:29:08;12.00;1.00
10278;DHT22;5184;51.376;7.148;2022-11-15T05:31:33;12.00;1.00
10278;DHT22;5184;51.376;7.148;2022-11-15T05:34:00;12.00;1.00
10278;DHT22;5184;51.376;7.148;2022-11-15T05:36:33;12.00;1.00
10278;DHT22;5184;51.376;7.148;2022-11-15T05:38:58;12.00;13.20
10278;DHT22;5184;51.376;7.148;2022-11-15T05:43:57;12.00;1.00
10278;DHT22;5184;51.376;7.148;2022-11-15T05:46:24;12.00;1.00
10278;DHT22;5184;51.376;7.148;2022-11-15T05:48:51;12.00;99.90
10278;DHT22;5184;51.376;7.148;2022-11-15T05:51:19;12.00;99.90
10278;DHT22;5184;51.376;7.148;2022-11-15T05:53:46;12.00;99.90
10278;DHT22;5184;51.376;7.148;2022-11-15T05:56:13;12.00;99.90
10278;DHT22;5184;51.376;7.148;2022-11-15T05:58:39;11.90;99.90
10278;DHT22;5184;51.376;7.148;2022-11-15T06:01:06;11.90;1.00
10278;DHT22;5184;51.376;7.148;2022-11-15T06:03:33;11.90;99.90
10278;DHT22;5184;51.376;7.148;2022-11-15T06:05:59;12.00;99.90
10278;DHT22;5184;51.376;7.148;2022-11-15T06:08:27;11.90;99.90
10278;DHT22;5184;51.376;7.148;2022-11-15T06:10:54;11.90;99.90
10278;DHT22;5184;51.376;7.148;2022-11-15T06:13:21;12.00;99.90
10278;DHT22;5184;51.376;7.148;2022-11-15T06:15:48;12.00;99.90
10278;DHT22;5184;51.376;7.148;2022-11-15T06:18:14;12.00;1.00
10278;DHT22;5184;51.376;7.148;2022-11-15T06:20:41;12.10;1.00
10278;DHT22;5184;51.376;7.148;2022-11-15T06:23:08;12.10;99.90
10278;DHT22;5184;51.376;7.148;2022-11-15T06:25:34;12.10;1.00
10278;DHT22;5184;51.376;7.148;2022-11-15T06:28:02;12.10;99.90
10278;DHT22;5184;51.376;7.148;2022-11-15T06:30:28;12.10;99.90
10278;DHT22;5184;51.376;7.148;2022-11-15T06:33:00;12.10;1.00
10278;DHT22;5184;51.376;7.148;2022-11-15T06:35:26;12.20;99.90
10278;DHT22;5184;51.376;7.148;2022-11-15T06:37:52;12.20;1.00
10278;DHT22;5184;51.376;7.148;2022-11-15T06:40:19;12.20;1.00
10278;DHT22;5184;51.376;7.148;2022-11-15T06:42:46;12.30;99.90
10278;DHT22;5184;51.376;7.148;2022-11-15T06:45:14;12.30;1.00
10278;DHT22;5184;51.376;7.148;2022-11-15T06:47:45;12.30;1.00
10278;DHT22;5184;51.376;7.148;2022-11-15T06:50:11;12.30;99.90
10278;DHT22;5184;51.376;7.148;2022-11-15T06:52:37;12.30;1.00
10278;DHT22;5184;51.376;7.148;2022-11-15T06:55:06;12.30;99.90
10278;DHT22;5184;51.376;7.148;2022-11-15T06:57:32;12.30;99.90
10278;DHT22;5184;51.376;7.148;2022-11-15T07:00:00;12.30;46.30
10278;DHT22;5184;51.376;7.148;2022-11-15T07:02:26;12.20;39.10
10278;DHT22;5184;51.376;7.148;2022-11-15T07:04:53;12.30;1.00
10278;DHT22;5184;51.376;7.148;2022-11-15T07:07:20;12.30;1.00
10278;DHT22;5184;51.376;7.148;2022-11-15T07:09:47;12.20;1.00
10278;DHT22;5184;51.376;7.148;2022-11-15T07:12:15;12.20;1.00
10278;DHT22;5184;51.376;7.148;2022-11-15T07:14:43;12.20;99.90
10278;DHT22;5184;51.376;7.148;2022-11-15T07:17:10;12.10;99.90
10278;DHT22;5184;51.376;7.148;2022-11-15T07:19:37;12.10;1.00
10278;DHT22;5184;51.376;7.148;2022-11-15T07:22:04;12.10;1.00
10278;DHT22;5184;51.376;7.148;2022-11-15T07:24:31;12.10;1.00
10278;DHT22;5184;51.376;7.148;2022-11-15T07:26:57;12.10;1.00
10278;DHT22;5184;51.376;7.148;2022-11-15T07:29:24;12.10;1.00
10278;DHT22;5184;51.376;7.148;2022-11-15T07:31:50;12.00;1.00
10278;DHT22;5184;51.376;7.148;2022-11-15T07:34:18;11.90;1.00
10278;DHT22;5184;51.376;7.148;2022-11-15T07:36:44;11.90;1.00
10278;DHT22;5184;51.376;7.148;2022-11-15T07:39:11;11.90;1.00
10278;DHT22;5184;51.376;7.148;2022-11-15T07:41:38;12.00;1.00
10278;DHT22;5184;51.376;7.148;2022-11-15T07:44:06;12.00;99.90
10278;DHT22;5184;51.376;7.148;2022-11-15T07:46:32;12.00;99.90
10278;DHT22;5184;51.376;7.148;2022-11-15T07:48:59;12.00;99.90
10278;DHT22;5184;51.376;7.148;2022-11-15T07:51:25;12.00;99.90
10278;DHT22;5184;51.376;7.148;2022-11-15T07:53:52;12.00;99.90
10278;DHT22;5184;51.376;7.148;2022-11-15T07:56:19;12.00;99.90
10278;DHT22;5184;51.376;7.148;2022-11-15T07:58:46;12.00;99.90
10278;DHT22;5184;51.376;7.148;2022-11-15T08:01:13;12.00;1.00
10278;DHT22;5184;51.376;7.148;2022-11-15T08:03:39;12.00;6.20
10278;DHT22;5184;51.376;7.148;2022-11-15T08:06:06;12.00;1.00
10278;DHT22;5184;51.376;7.148;2022-11-15T08:08:32;12.00;1.00
10278;DHT22;5184;51.376;7.148;2022-11-15T08:11:00;12.00;99.90
10278;DHT22;5184;51.376;7.148;2022-11-15T08:13:27;11.90;99.90
10278;DHT22;5184;51.376;7.148;2022-11-15T08:15:59;11.90;99.90
10278;DHT22;5184;51.376;7.148;2022-11-15T08:18:25;11.90;99.90
10278;DHT22;5184;51.376;7.148;2022-11-15T08:20:52;11.90;99.90
10278;DHT22;5184;51.376;7.148;2022-11-15T08:23:19;11.90;99.90
10278;DHT22;5184;51.376;7.148;2022-11-15T08:25:47;11.90;99.90
10278;DHT22;5184;51.376;7.148;2022-11-15T08:28:15;11.90;99.90
10278;DHT22;5184;51.376;7.148;2022-11-15T08:30:41;11.90;99.90
10278;DHT22;5184;51.376;7.148;2022-11-15T08:33:09;11.90;99.90
10278;DHT22;5184;51.376;7.148;2022-11-15T08:35:33;11.90;99.90
10278;DHT22;5184;51.376;7.148;2022-11-15T08:38:00;11.90;99.90
10278;DHT22;5184;51.376;7.148;2022-11-15T08:40:27;11.80;99.90
10278;DHT22;5184;51.376;7.148;2022-11-15T08:42:54;11.80;51.00
10278;DHT22;5184;51.376;7.148;2022-11-15T08:45:21;11.80;45.60
10278;DHT22;5184;51.376;7.148;2022-11-15T08:47:47;11.90;18.40
10278;DHT22;5184;51.376;7.148;2022-11-15T08:50:15;11.80;1.00
10278;DHT22;5184;51.376;7.148;2022-11-15T08:52:41;11.80;1.00
10278;DHT22;5184;51.376;7.148;2022-11-15T08:55:08;11.80;1.00
10278;DHT22;5184;51.376;7.148;2022-11-15T08:57:35;11.80;1.00
10278;DHT22;5184;51.376;7.148;2022-11-15T09:00:02;11.90;1.00
10278;DHT22;5184;51.376;7.148;2022-11-15T09:02:28;11.90;1.00
10278;DHT22;5184;51.376;7.148;2022-11-15T09:04:55;11.90;1.00
10278;DHT22;5184;51.376;7.148;2022-11-15T09:07:21;12.00;99.90
10278;DHT22;5184;51.376;7.148;2022-11-15T09:09:49;12.00;99.90
10278;DHT22;5184;51.376;7.148;2022-11-15T09:12:16;12.00;99.90
10278;DHT22;5184;51.376;7.148;2022-11-15T09:14:42;12.00;99.90
10278;DHT22;5184;51.376;7.148;2022-11-15T09:17:09;12.00;10.00
10278;DHT22;5184;51.376;7.148;2022-11-15T09:19:36;12.00;1.00
10278;DHT22;5184;51.376;7.148;2022-11-15T09:22:05;12.10;1.00
10278;DHT22;5184;51.376;7.148;2022-11-15T09:24:29;12.10;1.00
10278;DHT22;5184;51.376;7.148;2022-11-15T09:26:55;12.10;1.00
10278;DHT22;5184;51.376;7.148;2022-11-15T09:29:22;12.20;1.00
10278;DHT22;5184;51.376;7.148;2022-11-15T09:31:51;12.10;1.00
10278;DHT22;5184;51.376;7.148;2022-11-15T09:34:17;12.10;1.00
10278;DHT22;5184;51.376;7.148;2022-11-15T09:36:44;12.10;1.00
10278;DHT22;5184;51.376;7.148;2022-11-15T09:39:11;12.00;1.00
10278;DHT22;5184;51.376;7.148;2022-11-15T09:42:10;12.00;1.00
10278;DHT22;5184;51.376;7.148;2022-11-15T09:44:41;12.10;1.00
10278;DHT22;5184;51.376;7.148;2022-11-15T09:47:10;12.10;1.00
10278;DHT22;5184;51.376;7.148;2022-11-15T09:49:32;12.10;99.90
10278;DHT22;5184;51.376;7.148;2022-11-15T09:51:59;12.20;99.90
10278;DHT22;5184;51.376;7.148;2022-11-15T09:54:33;12.20;91.80
10278;DHT22;5184;51.376;7.148;2022-11-15T09:57:04;12.10;74.90
10278;DHT22;5184;51.376;7.148;2022-11-15T09:59:44;12.20;1.00
10278;DHT22;5184;51.376;7.148;2022-11-15T10:02:17;14.20;1.00
10278;DHT22;5184;51.376;7.148;2022-11-15T10:04:37;11.80;1.00
10278;DHT22;5184;51.376;7.148;2022-11-15T10:07:27;12.30;1.00
10278;DHT22;5184;51.376;7.148;2022-11-15T10:09:56;12.30;1.00
10278;DHT22;5184;51.376;7.148;2022-11-15T10:12:22;12.20;99.90
10278;DHT22;5184;51.376;7.148;2022-11-15T10:14:49;12.30;99.90
10278;DHT22;5184;51.376;7.148;2022-11-15T10:20:06;12.20;99.90
10278;DHT22;5184;51.376;7.148;2022-11-15T10:22:35;12.20;99.90
10278;DHT22;5184;51.376;7.148;2022-11-15T10:25:09;12.20;99.90
10278;DHT22;5184;51.376;7.148;2022-11-15T10:27:27;12.20;99.90
10278;DHT22;5184;51.376;7.148;2022-11-15T10:29:54;12.30;99.90
10278;DHT22;5184;51.376;7.148;2022-11-15T10:32:20;12.30;1.00
10278;DHT22;5184;51.376;7.148;2022-11-15T10:34:47;12.30;1.00
10278;DHT22;5184;51.376;7.148;2022-11-15T10:37:13;12.30;1.00
10278;DHT22;5184;51.376;7.148;2022-11-15T10:39:40;12.30;1.00
10278;DHT22;5184;51.376;7.148;2022-11-15T10:42:15;12.40;99.90
10278;DHT22;5184;51.376;7.148;2022-11-15T10:44:42;12.40;99.90
10278;DHT22;5184;51.376;7.148;2022-11-15T10:47:24;12.40;99.90
10278;DHT22;5184;51.376;7.148;2022-11-15T10:49:55;12.50;99.90
10278;DHT22;5184;51.376;7.148;2022-11-15T10:52:21;12.60;1.00
10278;DHT22;5184;51.376;7.148;2022-11-15T10:54:52;12.60;99.90
10278;DHT22;5184;51.376;7.148;2022-11-15T10:57:26;12.60;99.90
10278;DHT22;5184;51.376;7.148;2022-11-15T10:59:56;12.70;99.90
10278;DHT22;5184;51.376;7.148;2022-11-15T11:02:27;12.70;99.90
10278;DHT22;5184;51.376;7.148;2022-11-15T11:04:51;12.80;99.90
10278;DHT22;5184;51.376;7.148;2022-11-15T11:07:22;12.80;99.90
10278;DHT22;5184;51.376;7.148;2022-11-15T11:09:55;12.80;58.30
10278;DHT22;5184;51.376;7.148;2022-11-15T11:12:14;12.90;70.20
10278;DHT22;5184;51.376;7.148;2022-11-15T11:14:41;10.50;1.00
10278;DHT22;5184;51.376;7.148;2022-11-15T11:17:32;13.00;1.00
10278;DHT22;5184;51.376;7.148;2022-11-15T11:20:17;13.10;1.00
10278;DHT22;5184;51.376;7.148;2022-11-15T11:22:50;13.10;1.00
10278;DHT22;5184;51.376;7.148;2022-11-15T11:25:22;13.20;1.00
10278;DHT22;5184;51.376;7.148;2022-11-15T11:27:59;13.20;1.00
10278;DHT22;5184;51.376;7.148;2022-11-15T11:30:46;13.30;99.90
10278;DHT22;5184;51.376;7.148;2022-11-15T11:33:16;13.40;99.90
10278;DHT22;5184;51.376;7.148;2022-11-15T11:35:49;13.40;99.90
10278;DHT22;5184;51.376;7.148;2022-11-15T11:38:50;13.50;99.90
10278;DHT22;5184;51.376;7.148;2022-11-15T11:41:18;13.60;99.90
10278;DHT22;5184;51.376;7.148;2022-11-15T11:46:47;13.60;11.80
10278;DHT22;5184;51.376;7.148;2022-11-15T11:49:15;13.60;12.20
10278;DHT22;5184;51.376;7.148;2022-11-15T11:51:42;13.60;79.80
10278;DHT22;5184;51.376;7.148;2022-11-15T11:54:18;13.60;69.20
10278;DHT22;5184;51.376;7.148;2022-11-15T11:56:43;13.70;1.00
10278;DHT22;5184;51.376;7.148;2022-11-15T11:59:17;13.70;1.00
10278;DHT22;5184;51.376;7.148;2022-11-15T12:01:42;13.60;1.00
10278;DHT22;5184;51.376;7.148;2022-11-15T12:06:59;13.70;1.00
10278;DHT22;5184;51.376;7.148;2022-11-15T12:12:16;13.80;1.00
10278;DHT22;5184;51.376;7.148;2022-11-15T12:15:00;13.90;1.00
10278;DHT22;5184;51.376;7.148;2022-11-15T12:17:25;14.00;1.00
10278;DHT22;5184;51.376;7.148;2022-11-15T12:19:55;14.00;1.00
10278;DHT22;5184;51.376;7.148;2022-11-15T12:22:23;14.00;1.00
10278;DHT22;5184;51.376;7.148;2022-11-15T12:24:53;13.90;1.00
10278;DHT22;5184;51.376;7.148;2022-11-15T12:27:20;13.90;1.00
10278;DHT22;5184;51.376;7.148;2022-11-15T12:29:47;13.80;1.00
10278;DHT22;5184;51.376;7.148;2022-11-15T12:32:18;13.70;1.00
10278;DHT22;5184;51.376;7.148;2022-11-15T12:34:45;13.70;1.00
10278;DHT22;5184;51.376;7.148;2022-11-15T12:42:40;13.80;22.20
10278;DHT22;5184;51.376;7.148;2022-11-15T12:45:29;13.90;1.90
10278;DHT22;5184;51.376;7.148;2022-11-15T12:47:56;13.80;1.00
10278;DHT22;5184;51.376;7.148;2022-11-15T12:50:52;13.90;29.00
10278;DHT22;5184;51.376;7.148;2022-11-15T12:55:44;13.90;42.30
10278;DHT22;5184;51.376;7.148;2022-11-15T12:58:26;13.90;22.60
10278;DHT22;5184;51.376;7.148;2022-11-15T13:00:46;11.60;92.90
10278;DHT22;5184;51.376;7.148;2022-11-15T13:03:21;13.90;63.10
10278;DHT22;5184;51.376;7.148;2022-11-15T13:05:51;13.90;33.80
10278;DHT22;5184;51.376;7.148;2022-11-15T13:08:32;13.90;69.80
10278;DHT22;5184;51.376;7.148;2022-11-15T13:10:39;14.00;4.70
10278;DHT22;5184;51.376;7.148;2022-11-15T13:13:07;14.00;1.00
10278;DHT22;5184;51.376;7.148;2022-11-15T13:15:35;14.00;1.00
10278;DHT22;5184;51.376;7.148;2022-11-15T13:18:35;14.00;1.00
10278;DHT22;5184;51.376;7.148;2022-11-15T13:21:01;14.00;1.00
10278;DHT22;5184;51.376;7.148;2022-11-15T13:23:28;14.00;1.00
10278;DHT22;5184;51.376;7.148;2022-11-15T13:26:03;14.00;1.00
10278;DHT22;5184;51.376;7.148;2022-11-15T13:28:31;14.00;1.00
10278;DHT22;5184;51.376;7.148;2022-11-15T13:30:57;14.00;1.00
10278;DHT22;5184;51.376;7.148;2022-11-15T13:33:30;14.00;1.00
10278;DHT22;5184;51.376;7.148;2022-11-15T13:35:56;14.00;1.00
10278;DHT22;5184;51.376;7.148;2022-11-15T13:38:27;14.10;1.00
10278;DHT22;5184;51.376;7.148;2022-11-15T13:40:53;14.00;1.00
10278;DHT22;5184;51.376;7.148;2022-11-15T13:43:32;13.90;1.00
10278;DHT22;5184;51.376;7.148;2022-11-15T13:46:24;13.90;1.00
10278;DHT22;5184;51.376;7.148;2022-11-15T13:48:52;13.90;18.20
10278;DHT22;5184;51.376;7.148;2022-11-15T13:51:23;13.70;90.10
10278;DHT22;5184;51.376;7.148;2022-11-15T13:53:50;13.70;99.90
10278;DHT22;5184;51.376;7.148;2022-11-15T13:56:15;13.60;99.90
10278;DHT22;5184;51.376;7.148;2022-11-15T13:58:41;13.60;99.90
10278;DHT22;5184;51.376;7.148;2022-11-15T14:01:08;13.60;99.90
10278;DHT22;5184;51.376;7.148;2022-11-15T14:03:37;13.60;99.90
10278;DHT22;5184;51.376;7.148;2022-11-15T14:06:05;13.70;99.90
10278;DHT22;5184;51.376;7.148;2022-11-15T14:08:31;13.60;99.90
10278;DHT22;5184;51.376;7.148;2022-11-15T14:11:07;13.60;99.90
10278;DHT22;5184;51.376;7.148;2022-11-15T14:13:33;13.60;99.90
10278;DHT22;5184;51.376;7.148;2022-11-15T14:18:42;13.50;1.00
10278;DHT22;5184;51.376;7.148;2022-11-15T14:21:07;13.50;1.00
10278;DHT22;5184;51.376;7.148;2022-11-15T14:23:34;13.40;1.00
10278;DHT22;5184;51.376;7.148;2022-11-15T14:26:01;13.30;1.00
10278;DHT22;5184;51.376;7.148;2022-11-15T14:28:30;13.40;1.00
10278;DHT22;5184;51.376;7.148;2022-11-15T14:30:57;13.40;1.00
10278;DHT22;5184;51.376;7.148;2022-11-15T14:33:28;13.30;1.00
10278;DHT22;5184;51.376;7.148;2022-11-15T14:35:52;13.30;1.00
10278;DHT22;5184;51.376;7.148;2022-11-15T14:38:21;13.30;1.00
10278;DHT22;5184;51.376;7.148;2022-11-15T14:40:48;13.40;1.00
10278;DHT22;5184;51.376;7.148;2022-11-15T14:43:15;13.30;1.00
10278;DHT22;5184;51.376;7.148;2022-11-15T14:45:43;13.30;1.00
10278;DHT22;5184;51.376;7.148;2022-11-15T14:48:10;13.30;1.00
10278;DHT22;5184;51.376;7.148;2022-11-15T14:50:37;13.30;17.10
10278;DHT22;5184;51.376;7.148;2022-11-15T14:53:05;13.30;21.20
10278;DHT22;5184;51.376;7.148;2022-11-15T14:55:33;13.30;14.20
10278;DHT22;5184;51.376;7.148;2022-11-15T14:57:59;13.20;37.90
10278;DHT22;5184;51.376;7.148;2022-11-15T15:00:26;13.30;64.80
10278;DHT22;5184;51.376;7.148;2022-11-15T15:02:53;13.30;81.80
10278;DHT22;5184;51.376;7.148;2022-11-15T15:05:22;13.30;99.90
10278;DHT22;5184;51.376;7.148;2022-11-15T15:07:47;13.20;99.90
10278;DHT22;5184;51.376;7.148;2022-11-15T15:10:14;13.20;99.90
10278;DHT22;5184;51.376;7.148;2022-11-15T15:12:42;13.20;99.90
10278;DHT22;5184;51.376;7.148;2022-11-15T15:15:15;13.20;99.90
10278;DHT22;5184;51.376;7.148;2022-11-15T15:17:41;13.00;99.90
10278;DHT22;5184;51.376;7.148;2022-11-15T15:20:09;13.00;99.90
10278;DHT22;5184;51.376;7.148;2022-11-15T15:22:35;13.00;99.90
10278;DHT22;5184;51.376;7.148;2022-11-15T15:25:02;13.00;99.90
10278;DHT22;5184;51.376;7.148;2022-11-15T15:27:29;13.00;99.90
10278;DHT22;5184;51.376;7.148;2022-11-15T15:29:56;13.00;99.90
10278;DHT22;5184;51.376;7.148;2022-11-15T15:32:24;13.00;99.90
10278;DHT22;5184;51.376;7.148;2022-11-15T15:34:50;13.00;99.90
10278;DHT22;5184;51.376;7.148;2022-11-15T15:37:24;13.00;99.90
10278;DHT22;5184;51.376;7.148;2022-11-15T15:39:52;13.00;99.90
10278;DHT22;5184;51.376;7.148;2022-11-15T15:42:19;12.90;99.90
10278;DHT22;5184;51.376;7.148;2022-11-15T15:44:46;12.90;99.90
10278;DHT22;5184;51.376;7.148;2022-11-15T15:47:13;13.00;99.90
10278;DHT22;5184;51.376;7.148;2022-11-15T15:49:39;12.90;99.90
10278;DHT22;5184;51.376;7.148;2022-11-15T15:52:06;12.90;1.00
10278;DHT22;5184;51.376;7.148;2022-11-15T15:54:32;12.90;1.00
10278;DHT22;5184;51.376;7.148;2022-11-15T15:56:59;12.90;1.00
10278;DHT22;5184;51.376;7.148;2022-11-15T15:59:26;12.90;1.00
10278;DHT22;5184;51.376;7.148;2022-11-15T16:01:53;12.90;1.00
10278;DHT22;5184;51.376;7.148;2022-11-15T16:04:21;12.90;1.00
10278;DHT22;5184;51.376;7.148;2022-11-15T16:06:48;12.90;1.00
10278;DHT22;5184;51.376;7.148;2022-11-15T16:09:17;12.90;1.00
10278;DHT22;5184;51.376;7.148;2022-11-15T16:11:43;12.90;1.00
10278;DHT22;5184;51.376;7.148;2022-11-15T16:14:09;12.90;14.00
10278;DHT22;5184;51.376;7.148;2022-11-15T16:16:35;12.90;99.90
10278;DHT22;5184;51.376;7.148;2022-11-15T16:19:03;12.90;99.90
10278;DHT22;5184;51.376;7.148;2022-11-15T16:21:30;12.90;99.90
10278;DHT22;5184;51.376;7.148;2022-11-15T16:23:57;12.90;99.90
10278;DHT22;5184;51.376;7.148;2022-11-15T16:26:25;12.90;99.90
10278;DHT22;5184;51.376;7.148;2022-11-15T16:28:51;12.90;99.90
10278;DHT22;5184;51.376;7.148;2022-11-15T16:31:18;13.00;99.90
10278;DHT22;5184;51.376;7.148;2022-11-15T16:33:45;13.00;99.90